createdAt,value
2017-11-25T00:00:17.885Z,2.90
2017-11-25T00:02:45.486Z,2.80
2017-11-25T00:05:13.351Z,2.80
2017-11-25T00:07:39.952Z,2.80
2017-11-25T00:10:06.339Z,2.80
2017-11-25T00:12:32.880Z,2.90
2017-11-25T00:14:59.550Z,2.90
2017-11-25T00:17:26.171Z,3.00
2017-11-25T00:19:53.852Z,3.10
2017-11-25T00:22:20.603Z,3.10
2017-11-25T00:24:47.303Z,3.10
2017-11-25T00:27:14.050Z,3.10
2017-11-25T00:29:40.827Z,3.10
2017-11-25T00:32:08.350Z,3.20
2017-11-25T00:34:34.971Z,3.20
2017-11-25T00:37:01.582Z,3.30
2017-11-25T00:39:28.343Z,3.30
2017-11-25T00:41:55.011Z,3.30
2017-11-25T00:44:21.534Z,3.40
2017-11-25T00:46:48.033Z,3.40
2017-11-25T00:49:14.599Z,3.50
2017-11-25T00:51:44.236Z,3.50
2017-11-25T00:54:10.985Z,3.60
2017-11-25T00:56:38.263Z,3.60
2017-11-25T00:59:04.945Z,3.70
2017-11-25T01:01:31.424Z,3.70
2017-11-25T01:03:57.941Z,3.70
2017-11-25T01:06:24.559Z,3.70
2017-11-25T01:08:51.089Z,3.80
2017-11-25T01:11:17.487Z,3.80
2017-11-25T01:13:43.998Z,3.80
2017-11-25T01:16:10.571Z,3.80
2017-11-25T01:18:37.152Z,3.80
2017-11-25T01:21:04.491Z,3.90
2017-11-25T01:23:31.732Z,3.80
2017-11-25T01:25:58.253Z,3.80
2017-11-25T01:28:24.800Z,3.80
2017-11-25T01:30:51.340Z,3.90
2017-11-25T01:33:18.185Z,3.90
2017-11-25T01:35:44.940Z,3.90
2017-11-25T01:38:11.396Z,4.00
2017-11-25T01:40:37.813Z,4.00
2017-11-25T01:43:04.532Z,4.00
2017-11-25T01:45:31.153Z,3.90
2017-11-25T01:47:57.878Z,3.90
2017-11-25T01:50:24.724Z,3.90
2017-11-25T01:52:52.160Z,3.90
2017-11-25T01:55:18.797Z,3.90
2017-11-25T01:57:45.452Z,3.80
2017-11-25T02:00:12.006Z,3.80
2017-11-25T02:02:38.468Z,3.90
2017-11-25T02:05:04.967Z,3.80
2017-11-25T02:07:31.521Z,3.80
2017-11-25T02:09:57.946Z,3.90
2017-11-25T02:12:24.358Z,4.00
2017-11-25T02:14:51.113Z,4.00
2017-11-25T02:17:17.696Z,4.00
2017-11-25T02:19:45.202Z,4.00
2017-11-25T02:22:11.727Z,4.00
2017-11-25T02:24:38.912Z,4.00
2017-11-25T02:27:07.072Z,3.90
2017-11-25T02:29:33.896Z,4.00
2017-11-25T02:32:00.461Z,4.00
2017-11-25T02:34:27.187Z,4.00
2017-11-25T02:36:53.603Z,4.00
2017-11-25T02:39:20.160Z,4.00
2017-11-25T02:41:46.716Z,4.00
2017-11-25T02:44:13.148Z,4.00
2017-11-25T02:46:39.769Z,4.00
2017-11-25T02:49:06.501Z,4.00
2017-11-25T02:51:34.018Z,4.00
2017-11-25T02:54:00.522Z,4.00
2017-11-25T02:56:27.198Z,4.00
2017-11-25T02:58:53.913Z,4.00
2017-11-25T03:01:20.420Z,3.90
2017-11-25T03:03:47.574Z,4.00
2017-11-25T03:06:14.109Z,3.90
2017-11-25T03:08:40.545Z,4.00
2017-11-25T03:11:06.982Z,3.90
2017-11-25T03:13:34.314Z,4.00
2017-11-25T03:16:01.063Z,4.00
2017-11-25T03:18:27.661Z,4.00
2017-11-25T03:20:54.049Z,3.90
2017-11-25T03:23:21.378Z,4.00
2017-11-25T03:25:48.364Z,4.00
2017-11-25T03:28:14.880Z,3.90
2017-11-25T03:30:41.510Z,3.90
2017-11-25T03:33:08.693Z,3.90
2017-11-25T03:35:35.211Z,3.90
2017-11-25T03:38:01.804Z,3.90
2017-11-25T03:40:28.214Z,3.90
2017-11-25T03:42:54.655Z,3.90
2017-11-25T03:45:21.068Z,3.90
2017-11-25T03:47:47.453Z,3.90
2017-11-25T03:50:13.995Z,3.90
2017-11-25T03:52:40.418Z,3.90
2017-11-25T03:55:06.800Z,3.90
2017-11-25T03:57:33.331Z,3.90
2017-11-25T03:59:59.915Z,4.00
2017-11-25T04:02:26.534Z,3.90
2017-11-25T04:04:52.852Z,3.90
2017-11-25T04:07:19.234Z,3.90
2017-11-25T04:09:45.688Z,3.90
2017-11-25T04:12:12.094Z,3.80
2017-11-25T04:14:38.406Z,3.80
2017-11-25T04:17:05.234Z,3.90
2017-11-25T04:19:31.645Z,3.90
2017-11-25T04:21:57.950Z,4.00
2017-11-25T04:24:24.414Z,3.90
2017-11-25T04:26:50.923Z,3.90
2017-11-25T04:29:18.140Z,4.00
2017-11-25T04:31:46.229Z,4.00
2017-11-25T04:34:12.860Z,4.00
2017-11-25T04:36:39.292Z,4.00
2017-11-25T04:39:05.689Z,4.00
2017-11-25T04:41:32.205Z,4.00
2017-11-25T04:43:58.654Z,3.90
2017-11-25T04:46:25.832Z,3.90
2017-11-25T04:48:58.546Z,3.80
2017-11-25T04:51:24.965Z,3.80
2017-11-25T04:53:51.477Z,3.90
2017-11-25T04:56:18.014Z,3.80
2017-11-25T04:58:44.779Z,3.80
2017-11-25T05:01:12.255Z,3.80
2017-11-25T05:03:39.411Z,3.80
2017-11-25T05:06:07.828Z,3.80
2017-11-25T05:08:35.169Z,3.80
2017-11-25T05:11:03.039Z,3.80
2017-11-25T05:13:29.600Z,3.90
2017-11-25T05:15:56.217Z,3.90
2017-11-25T05:18:22.706Z,3.90
2017-11-25T05:20:49.934Z,3.90
2017-11-25T05:23:16.500Z,3.80
2017-11-25T05:25:42.923Z,3.80
2017-11-25T05:28:09.398Z,3.80
2017-11-25T05:30:37.878Z,3.80
2017-11-25T05:33:04.361Z,3.70
2017-11-25T05:35:31.710Z,3.70
2017-11-25T05:37:58.161Z,3.70
2017-11-25T05:40:24.567Z,3.70
2017-11-25T05:42:51.014Z,3.80
2017-11-25T05:45:17.432Z,3.70
2017-11-25T05:47:43.834Z,3.70
2017-11-25T05:50:10.955Z,3.70
2017-11-25T05:52:37.345Z,3.70
2017-11-25T05:55:03.786Z,3.70
2017-11-25T05:57:30.496Z,3.70
2017-11-25T05:59:57.034Z,3.70
2017-11-25T06:02:23.389Z,3.60
2017-11-25T06:04:49.930Z,3.60
2017-11-25T06:07:16.440Z,3.70
2017-11-25T06:09:43.138Z,3.70
2017-11-25T06:12:09.670Z,3.70
2017-11-25T06:14:36.169Z,3.60
2017-11-25T06:17:02.654Z,3.70
2017-11-25T06:19:29.034Z,3.70
2017-11-25T06:21:55.481Z,3.80
2017-11-25T06:24:22.156Z,3.80
2017-11-25T06:26:48.705Z,3.70
2017-11-25T06:29:15.288Z,3.70
2017-11-25T06:31:41.804Z,3.60
2017-11-25T06:34:08.332Z,3.70
2017-11-25T06:36:34.722Z,3.70
2017-11-25T06:39:01.149Z,3.70
2017-11-25T06:41:27.590Z,3.70
2017-11-25T06:43:54.020Z,3.70
2017-11-25T06:46:21.271Z,3.70
2017-11-25T06:48:47.873Z,3.70
2017-11-25T06:51:14.544Z,3.70
2017-11-25T06:53:40.936Z,3.80
2017-11-25T06:56:08.081Z,3.70
2017-11-25T06:58:36.070Z,3.80
2017-11-25T07:01:02.936Z,3.70
2017-11-25T07:03:29.352Z,3.80
2017-11-25T07:05:55.814Z,3.80
2017-11-25T07:08:22.198Z,3.80
2017-11-25T07:10:48.651Z,3.80
2017-11-25T07:13:15.460Z,3.80
2017-11-25T07:15:42.520Z,3.80
2017-11-25T07:18:09.113Z,3.80
2017-11-25T07:20:36.237Z,3.80
2017-11-25T07:23:02.669Z,3.80
2017-11-25T07:25:29.235Z,3.90
2017-11-25T07:27:56.476Z,3.90
2017-11-25T07:30:22.958Z,3.90
2017-11-25T07:32:49.426Z,3.90
2017-11-25T07:35:15.921Z,3.90
2017-11-25T07:37:43.086Z,4.00
2017-11-25T07:40:09.530Z,4.00
2017-11-25T07:42:38.390Z,4.00
2017-11-25T07:45:04.877Z,4.00
2017-11-25T07:47:31.409Z,4.00
2017-11-25T07:49:58.043Z,4.10
2017-11-25T07:52:24.402Z,4.10
2017-11-25T07:54:50.917Z,4.10
2017-11-25T07:57:17.358Z,4.10
2017-11-25T07:59:43.816Z,4.20
2017-11-25T08:02:10.162Z,4.20
2017-11-25T08:04:36.721Z,4.20
2017-11-25T08:07:03.935Z,4.20
2017-11-25T08:09:31.049Z,4.20
2017-11-25T08:11:57.937Z,4.20
2017-11-25T08:14:26.049Z,4.20
2017-11-25T08:16:52.684Z,4.20
2017-11-25T08:19:19.158Z,4.20
2017-11-25T08:21:47.319Z,4.20
2017-11-25T08:24:14.132Z,4.20
2017-11-25T08:26:40.895Z,4.30
2017-11-25T08:29:13.811Z,4.30
2017-11-25T08:31:40.357Z,4.30
2017-11-25T08:34:07.567Z,4.30
2017-11-25T08:36:35.313Z,4.40
2017-11-25T08:39:02.376Z,4.50
2017-11-25T08:41:29.656Z,4.50
2017-11-25T08:43:56.659Z,4.60
2017-11-25T08:46:23.438Z,4.60
2017-11-25T08:48:50.648Z,4.60
2017-11-25T08:51:18.572Z,4.60
2017-11-25T08:53:46.319Z,4.70
2017-11-25T08:56:13.678Z,4.70
2017-11-25T08:58:41.320Z,4.60
2017-11-25T09:01:08.090Z,4.60
2017-11-25T09:03:36.006Z,4.60
2017-11-25T09:06:03.015Z,4.60
2017-11-25T09:08:29.727Z,4.60
2017-11-25T09:10:56.241Z,4.60
2017-11-25T09:13:23.586Z,4.70
2017-11-25T09:15:50.057Z,4.70
2017-11-25T09:18:16.553Z,4.70
2017-11-25T09:20:44.521Z,4.80
2017-11-25T09:23:11.328Z,4.80
2017-11-25T09:25:37.804Z,4.80
2017-11-25T09:28:04.627Z,4.80
2017-11-25T09:30:31.141Z,4.80
2017-11-25T09:32:57.706Z,4.80
2017-11-25T09:35:24.706Z,4.80
2017-11-25T09:37:51.981Z,4.90
2017-11-25T09:40:18.532Z,4.80
2017-11-25T09:42:45.147Z,4.80
2017-11-25T09:45:11.713Z,4.80
2017-11-25T09:47:39.096Z,4.90
2017-11-25T09:50:05.608Z,4.80
2017-11-25T09:52:32.118Z,4.90
2017-11-25T09:54:58.607Z,4.90
2017-11-25T09:57:25.080Z,4.90
2017-11-25T09:59:51.465Z,4.90
2017-11-25T10:02:18.833Z,4.90
2017-11-25T10:04:46.225Z,5.00
2017-11-25T10:07:12.679Z,5.00
2017-11-25T10:09:39.255Z,5.10
2017-11-25T10:12:05.786Z,5.10
2017-11-25T10:14:32.397Z,5.10
2017-11-25T10:16:59.647Z,5.20
2017-11-25T10:19:26.297Z,5.20
2017-11-25T10:21:52.683Z,5.30
2017-11-25T10:24:19.962Z,5.30
2017-11-25T10:26:46.896Z,5.30
2017-11-25T10:29:13.565Z,5.30
2017-11-25T10:31:40.090Z,5.20
2017-11-25T10:34:06.497Z,5.20
2017-11-25T10:36:33.133Z,5.10
2017-11-25T10:38:59.698Z,5.00
2017-11-25T10:41:26.969Z,5.00
2017-11-25T10:43:53.801Z,4.90
2017-11-25T10:46:21.061Z,4.90
2017-11-25T10:48:47.446Z,4.90
2017-11-25T10:51:14.655Z,4.90
2017-11-25T10:53:41.062Z,4.90
2017-11-25T10:56:08.416Z,4.80
2017-11-25T10:58:34.921Z,4.70
2017-11-25T11:01:01.654Z,4.70
2017-11-25T11:03:28.095Z,4.70
2017-11-25T11:05:55.143Z,4.70
2017-11-25T11:08:21.710Z,4.60
2017-11-25T11:10:48.218Z,4.70
2017-11-25T11:13:15.201Z,4.70
2017-11-25T11:15:43.513Z,4.70
2017-11-25T11:18:10.350Z,4.60
2017-11-25T11:20:37.597Z,4.60
2017-11-25T11:23:04.628Z,4.50
2017-11-25T11:25:31.857Z,4.50
2017-11-25T11:27:58.793Z,4.50
2017-11-25T11:30:25.666Z,4.40
2017-11-25T11:32:53.586Z,4.40
2017-11-25T11:35:20.783Z,4.40
2017-11-25T11:37:48.406Z,4.30
2017-11-25T11:40:15.226Z,4.40
2017-11-25T11:42:42.287Z,4.30
2017-11-25T11:45:09.020Z,4.30
2017-11-25T11:47:35.623Z,4.40
2017-11-25T11:50:02.203Z,4.50
2017-11-25T11:52:28.870Z,4.60
2017-11-25T11:54:56.925Z,4.50
2017-11-25T11:57:23.714Z,4.50
2017-11-25T11:59:51.126Z,4.60
2017-11-25T12:02:20.887Z,4.70
2017-11-25T12:04:48.619Z,4.70
2017-11-25T12:07:15.762Z,4.80
2017-11-25T12:09:42.191Z,4.90
2017-11-25T12:12:09.106Z,4.90
2017-11-25T12:14:36.362Z,4.80
2017-11-25T12:17:02.912Z,4.80
2017-11-25T12:19:30.942Z,4.80
2017-11-25T12:21:58.495Z,4.80
2017-11-25T12:24:25.058Z,4.80
2017-11-25T12:26:51.757Z,4.90
2017-11-25T12:29:18.428Z,4.90
2017-11-25T12:31:45.932Z,5.00
2017-11-25T12:34:12.463Z,4.90
2017-11-25T12:36:39.204Z,5.00
2017-11-25T12:39:06.081Z,5.10
2017-11-25T12:41:33.453Z,5.10
2017-11-25T12:44:00.089Z,5.20
2017-11-25T12:46:27.346Z,5.20
2017-11-25T12:48:55.498Z,5.20
2017-11-25T12:51:22.233Z,5.30
2017-11-25T12:53:48.962Z,5.30
2017-11-25T12:56:17.068Z,5.20
2017-11-25T12:58:44.794Z,5.20
2017-11-25T13:01:11.996Z,5.10
2017-11-25T13:03:38.646Z,5.20
2017-11-25T13:06:05.334Z,5.20
2017-11-25T13:08:33.032Z,5.10
2017-11-25T13:10:59.590Z,5.10
2017-11-25T13:13:26.045Z,5.10
2017-11-25T13:15:52.652Z,5.10
2017-11-25T13:18:19.935Z,5.00
2017-11-25T13:20:47.395Z,5.00
2017-11-25T13:23:14.743Z,5.00
2017-11-25T13:25:41.533Z,5.00
2017-11-25T13:28:08.452Z,5.10
2017-11-25T13:30:36.524Z,4.90
2017-11-25T13:33:03.724Z,4.80
2017-11-25T13:35:33.840Z,4.80
2017-11-25T13:38:00.734Z,4.80
2017-11-25T13:40:27.246Z,4.80
2017-11-25T13:42:53.686Z,4.90
2017-11-25T13:45:20.079Z,4.90
2017-11-25T13:47:46.521Z,5.00
2017-11-25T13:50:13.348Z,5.00
2017-11-25T13:52:40.316Z,5.00
2017-11-25T13:55:07.870Z,5.00
2017-11-25T13:57:34.540Z,5.00
2017-11-25T14:00:01.067Z,5.00
2017-11-25T14:02:27.706Z,4.90
2017-11-25T14:04:55.269Z,4.80
2017-11-25T14:07:22.815Z,4.70
2017-11-25T14:09:49.299Z,4.70
2017-11-25T14:12:15.774Z,4.70
2017-11-25T14:14:42.309Z,4.60
2017-11-25T14:17:08.832Z,4.60
2017-11-25T14:19:36.415Z,4.40
2017-11-25T14:22:02.845Z,4.40
2017-11-25T14:24:29.225Z,4.40
2017-11-25T14:26:55.801Z,4.30
2017-11-25T14:29:22.701Z,4.20
2017-11-25T14:31:49.251Z,4.20
2017-11-25T14:34:16.275Z,4.20
2017-11-25T14:36:42.764Z,4.10
2017-11-25T14:39:10.496Z,4.00
2017-11-25T14:41:38.292Z,4.00
2017-11-25T14:44:05.213Z,3.90
2017-11-25T14:46:32.211Z,4.10
2017-11-25T14:48:58.986Z,4.10
2017-11-25T14:51:25.414Z,4.10
2017-11-25T14:53:52.784Z,4.20
2017-11-25T14:56:20.317Z,4.20
2017-11-25T14:58:46.807Z,4.10
2017-11-25T15:01:13.751Z,4.10
2017-11-25T15:03:40.343Z,4.10
2017-11-25T15:06:06.791Z,4.10
2017-11-25T15:08:34.528Z,4.20
2017-11-25T15:11:01.026Z,4.20
2017-11-25T15:13:27.749Z,4.20
2017-11-25T15:15:54.432Z,4.20
2017-11-25T15:18:20.979Z,4.20
2017-11-25T15:20:47.975Z,4.30
2017-11-25T15:23:16.336Z,4.30
2017-11-25T15:25:42.821Z,4.40
2017-11-25T15:28:09.430Z,4.40
2017-11-25T15:30:36.053Z,4.50
2017-11-25T15:33:02.784Z,4.50
2017-11-25T15:35:29.302Z,4.50
2017-11-25T15:37:56.873Z,4.50
2017-11-25T15:40:24.031Z,4.40
2017-11-25T15:42:50.541Z,4.50
2017-11-25T15:45:17.403Z,4.40
2017-11-25T15:47:44.270Z,4.40
2017-11-25T15:50:10.843Z,4.50
2017-11-25T15:52:38.818Z,4.40
2017-11-25T15:55:05.552Z,4.40
2017-11-25T15:57:31.977Z,4.40
2017-11-25T15:59:58.687Z,4.40
2017-11-25T16:02:27.266Z,4.40
2017-11-25T16:04:54.522Z,4.40
2017-11-25T16:07:22.101Z,4.40
2017-11-25T16:09:49.310Z,4.30
2017-11-25T16:12:23.137Z,4.20
2017-11-25T16:14:56.546Z,4.20
2017-11-25T16:17:23.129Z,4.20
2017-11-25T16:19:49.905Z,4.20
2017-11-25T16:22:16.419Z,4.20
2017-11-25T16:24:43.111Z,4.20
2017-11-25T16:27:10.460Z,4.20
2017-11-25T16:29:36.928Z,4.20
2017-11-25T16:32:03.526Z,4.20
2017-11-25T16:34:30.366Z,4.20
2017-11-25T16:36:56.897Z,4.20
2017-11-25T16:39:23.400Z,4.10
2017-11-25T16:41:49.918Z,4.10
2017-11-25T16:44:16.473Z,4.10
2017-11-25T16:46:42.935Z,4.10
2017-11-25T16:49:09.382Z,4.10
2017-11-25T16:51:35.852Z,4.10
2017-11-25T16:54:02.281Z,4.10
2017-11-25T16:56:28.675Z,4.10
2017-11-25T16:58:55.774Z,4.10
2017-11-25T17:01:22.251Z,4.00
2017-11-25T17:03:48.874Z,4.00
2017-11-25T17:06:15.719Z,4.00
2017-11-25T17:08:42.215Z,3.90
2017-11-25T17:11:08.589Z,3.90
2017-11-25T17:13:35.945Z,3.80
2017-11-25T17:16:03.194Z,3.70
2017-11-25T17:18:29.588Z,3.60
2017-11-25T17:20:56.259Z,3.60
2017-11-25T17:23:22.754Z,3.60
2017-11-25T17:25:49.178Z,3.50
2017-11-25T17:28:15.620Z,3.50
2017-11-25T17:30:42.096Z,3.40
2017-11-25T17:33:08.730Z,3.30
2017-11-25T17:35:35.253Z,3.30
2017-11-25T17:38:01.753Z,3.30
2017-11-25T17:40:28.167Z,3.30
2017-11-25T17:42:54.641Z,3.30
2017-11-25T17:45:21.590Z,3.30
2017-11-25T17:47:48.360Z,3.30
2017-11-25T17:50:15.129Z,3.20
2017-11-25T17:52:41.656Z,3.20
2017-11-25T17:55:08.914Z,3.10
2017-11-25T17:57:35.781Z,3.00
2017-11-25T18:00:02.236Z,3.00
2017-11-25T18:02:29.559Z,3.00
2017-11-25T18:04:57.664Z,2.90
2017-11-25T18:07:25.139Z,2.90
2017-11-25T18:09:51.583Z,2.90
2017-11-25T18:12:18.312Z,2.90
2017-11-25T18:14:45.628Z,2.90
2017-11-25T18:17:12.183Z,2.80
2017-11-25T18:19:38.782Z,2.90
2017-11-25T18:22:05.465Z,2.90
2017-11-25T18:24:32.016Z,2.80
2017-11-25T18:26:59.330Z,2.80
2017-11-25T18:29:25.975Z,2.80
2017-11-25T18:31:52.412Z,2.80
2017-11-25T18:34:19.209Z,2.70
2017-11-25T18:36:46.087Z,2.70
2017-11-25T18:39:13.510Z,2.70
2017-11-25T18:41:40.118Z,2.60
2017-11-25T18:46:40.631Z,2.50
2017-11-25T18:49:07.541Z,2.50
2017-11-25T18:51:34.994Z,2.40
2017-11-25T18:54:01.700Z,2.40
2017-11-25T18:56:28.345Z,2.40
2017-11-25T18:58:54.838Z,2.40
2017-11-25T19:01:21.405Z,2.30
2017-11-25T19:03:49.661Z,2.30
2017-11-25T19:06:17.721Z,2.30
2017-11-25T19:08:46.734Z,2.40
2017-11-25T19:11:13.435Z,2.40
2017-11-25T19:13:40.823Z,2.40
2017-11-25T19:16:08.845Z,2.50
2017-11-25T19:18:35.275Z,2.50
2017-11-25T19:21:02.517Z,2.50
2017-11-25T19:23:29.401Z,2.50
2017-11-25T19:25:55.974Z,2.40
2017-11-25T19:28:23.973Z,2.40
2017-11-25T19:30:50.914Z,2.40
2017-11-25T19:33:17.786Z,2.40
2017-11-25T19:35:45.113Z,2.30
2017-11-25T19:38:12.054Z,2.20
2017-11-25T19:40:38.943Z,2.20
2017-11-25T19:43:05.839Z,2.20
2017-11-25T19:45:32.645Z,2.30
2017-11-25T19:48:00.553Z,2.30
2017-11-25T19:50:27.709Z,2.20
2017-11-25T19:52:55.342Z,2.20
2017-11-25T19:55:23.822Z,2.10
2017-11-25T19:57:51.497Z,2.20
2017-11-25T20:00:18.067Z,2.10
2017-11-25T20:02:45.458Z,2.00
2017-11-25T20:05:11.950Z,1.90
2017-11-25T20:07:38.464Z,2.00
2017-11-25T20:10:04.970Z,2.00
2017-11-25T20:12:31.440Z,2.00
2017-11-25T20:14:58.448Z,2.00
2017-11-25T20:17:24.866Z,2.00
2017-11-25T20:19:51.471Z,2.00
2017-11-25T20:22:18.109Z,2.00
2017-11-25T20:24:44.969Z,2.00
2017-11-25T20:27:11.595Z,2.10
2017-11-25T20:29:38.487Z,2.00
2017-11-25T20:32:05.542Z,2.10
2017-11-25T20:34:32.029Z,2.10
2017-11-25T20:36:58.657Z,2.00
2017-11-25T20:39:25.370Z,2.00
2017-11-25T20:41:51.800Z,2.00
2017-11-25T20:44:18.365Z,2.00
2017-11-25T20:46:44.905Z,2.10
2017-11-25T20:49:11.739Z,2.10
2017-11-25T20:51:38.506Z,2.10
2017-11-25T20:54:05.808Z,2.20
2017-11-25T20:56:32.955Z,2.30
2017-11-25T20:58:59.976Z,2.30
2017-11-25T21:01:26.592Z,2.30
2017-11-25T21:03:53.033Z,2.40
2017-11-25T21:06:19.775Z,2.40
2017-11-25T21:08:47.211Z,2.50
2017-11-25T21:11:13.667Z,2.50
2017-11-25T21:13:40.959Z,2.50
2017-11-25T21:16:07.464Z,2.50
2017-11-25T21:18:34.049Z,2.60
2017-11-25T21:21:00.862Z,2.60
2017-11-25T21:23:27.792Z,2.60
2017-11-25T21:25:54.695Z,2.60
2017-11-25T21:28:21.216Z,2.60
2017-11-25T21:30:47.748Z,2.60
2017-11-25T21:33:14.493Z,2.60
2017-11-25T21:35:42.666Z,2.60
2017-11-25T21:38:09.456Z,2.70
2017-11-25T21:40:36.433Z,2.70
2017-11-25T21:43:02.966Z,2.70
2017-11-25T21:45:30.535Z,2.70
2017-11-25T21:47:57.185Z,2.70
2017-11-25T21:50:23.649Z,2.70
2017-11-25T21:52:50.222Z,2.70
2017-11-25T21:55:16.693Z,2.70
2017-11-25T21:57:43.217Z,2.70
2017-11-25T22:00:09.846Z,2.70
2017-11-25T22:02:36.376Z,2.70
2017-11-25T22:05:02.920Z,2.70
2017-11-25T22:07:29.477Z,2.60
2017-11-25T22:09:55.988Z,2.60
2017-11-25T22:12:22.523Z,2.60
2017-11-25T22:14:48.986Z,2.60
2017-11-25T22:17:15.622Z,2.60
2017-11-25T22:19:42.155Z,2.50
2017-11-25T22:22:08.639Z,2.50
2017-11-25T22:24:35.183Z,2.50
2017-11-25T22:27:01.731Z,2.50
2017-11-25T22:29:29.154Z,2.50
2017-11-25T22:31:55.664Z,2.40
2017-11-25T22:34:22.244Z,2.40
2017-11-25T22:36:48.885Z,2.30
2017-11-25T22:39:15.438Z,2.30
2017-11-25T22:41:41.954Z,2.30
2017-11-25T22:44:10.247Z,2.10
2017-11-25T22:46:36.741Z,2.10
2017-11-25T22:49:03.285Z,2.10
2017-11-25T22:51:29.656Z,2.10
2017-11-25T22:53:56.106Z,2.10
2017-11-25T22:56:24.279Z,2.10
2017-11-25T22:58:50.865Z,2.00
2017-11-25T23:01:17.476Z,2.10
2017-11-25T23:03:44.031Z,2.10
2017-11-25T23:06:10.468Z,2.20
2017-11-25T23:08:36.933Z,2.20
2017-11-25T23:11:03.507Z,2.20
2017-11-25T23:13:29.994Z,2.20
2017-11-25T23:15:57.395Z,2.20
2017-11-25T23:18:23.825Z,2.20
2017-11-25T23:20:50.299Z,2.10
2017-11-25T23:23:16.776Z,2.10
2017-11-25T23:25:43.192Z,2.00
2017-11-25T23:28:09.627Z,2.10
2017-11-25T23:30:36.143Z,2.20
2017-11-25T23:33:02.520Z,2.20
2017-11-25T23:35:28.910Z,2.30
2017-11-25T23:37:55.365Z,2.30
2017-11-25T23:40:22.082Z,2.20
2017-11-25T23:42:48.559Z,2.30
2017-11-25T23:45:15.418Z,2.30
2017-11-25T23:47:42.865Z,2.40
2017-11-25T23:50:09.429Z,2.40
2017-11-25T23:52:35.787Z,2.30
2017-11-25T23:55:02.497Z,2.20
2017-11-25T23:57:28.908Z,2.20
2017-11-25T23:59:55.442Z,2.20
